Terminal Aerodrome Forecast
Issued by NWS Charleston, WV

Current Version | Previous Version | Graphics & Text | Print | Product List | Glossary On
Versions: 1 2 3 4 5 6 7 8 9 10 11 12 13 14 15 16 17 18 19 20 21 22
611
FTUS41 KRLX 041720
TAFEKN
TAF
KEKN 041720Z 0418/0518 28008KT P6SM OVC035
     FM042000 30006KT P6SM OVC025
     FM050200 30004KT 6SM -SHSN OVC010
     FM051200 29005KT P6SM BKN025
     FM051700 29005KT P6SM BKN250=

USA.gov is the U.S. government's official web portal to all federal, state and local government web resources and services.